sensor_id;sensor_type;location;lat;lon;timestamp;pressure;altitude;pressure_sealevel;temperature;humidity
65553;BME280;52465;51.560;14.368;2023-05-02T00:01:34;100028.47;;;15.90;55.31
65553;BME280;52465;51.560;14.368;2023-05-02T00:04:00;100037.81;;;15.99;55.42
65553;BME280;52465;51.560;14.368;2023-05-02T00:06:25;100040.47;;;15.99;55.51
65553;BME280;52465;51.560;14.368;2023-05-02T00:08:51;100015.63;;;15.80;55.30
65553;BME280;52465;51.560;14.368;2023-05-02T00:11:16;100035.16;;;15.93;55.35
65553;BME280;52465;51.560;14.368;2023-05-02T00:13:42;100045.13;;;15.97;55.47
65553;BME280;52465;51.560;14.368;2023-05-02T00:16:08;100006.84;;;15.73;55.46
65553;BME280;52465;51.560;14.368;2023-05-02T00:18:36;100000.94;;;15.71;55.48
65553;BME280;52465;51.560;14.368;2023-05-02T00:21:01;100030.88;;;15.85;55.52
65553;BME280;52465;51.560;14.368;2023-05-02T00:23:26;100024.13;;;15.82;55.36
65553;BME280;52465;51.560;14.368;2023-05-02T00:25:52;100029.88;;;15.93;55.49
65553;BME280;52465;51.560;14.368;2023-05-02T00:28:17;100033.97;;;15.95;55.52
65553;BME280;52465;51.560;14.368;2023-05-02T00:30:44;100035.97;;;15.93;55.17
65553;BME280;52465;51.560;14.368;2023-05-02T00:33:11;100047.97;;;15.96;55.57
65553;BME280;52465;51.560;14.368;2023-05-02T00:35:37;100047.34;;;15.94;55.54
65553;BME280;52465;51.560;14.368;2023-05-02T00:38:03;100036.53;;;15.82;55.59
65553;BME280;52465;51.560;14.368;2023-05-02T00:40:28;100045.72;;;15.93;55.64
65553;BME280;52465;51.560;14.368;2023-05-02T00:42:53;100034.69;;;15.82;55.65
65553;BME280;52465;51.560;14.368;2023-05-02T00:45:19;100041.66;;;15.90;55.82
65553;BME280;52465;51.560;14.368;2023-05-02T00:47:44;100033.31;;;15.86;55.61
65553;BME280;52465;51.560;14.368;2023-05-02T00:50:09;100039.22;;;15.89;55.78
65553;BME280;52465;51.560;14.368;2023-05-02T00:52:36;100036.38;;;15.90;55.73
65553;BME280;52465;51.560;14.368;2023-05-02T00:55:02;100046.13;;;15.90;55.70
65553;BME280;52465;51.560;14.368;2023-05-02T00:57:29;100050.59;;;15.89;55.72
65553;BME280;52465;51.560;14.368;2023-05-02T00:59:55;100039.97;;;15.82;55.76
65553;BME280;52465;51.560;14.368;2023-05-02T01:05:14;100048.13;;;15.87;55.88
65553;BME280;52465;51.560;14.368;2023-05-02T01:07:59;100036.34;;;15.83;55.83
65553;BME280;52465;51.560;14.368;2023-05-02T01:13:21;100060.34;;;15.89;55.95
65553;BME280;52465;51.560;14.368;2023-05-02T01:15:49;100035.69;;;15.75;55.83
65553;BME280;52465;51.560;14.368;2023-05-02T01:18:17;100056.25;;;15.86;55.71
65553;BME280;52465;51.560;14.368;2023-05-02T01:20:47;100038.72;;;15.72;55.75
65553;BME280;52465;51.560;14.368;2023-05-02T01:23:29;100067.81;;;15.85;56.22
65553;BME280;52465;51.560;14.368;2023-05-02T01:26:14;100058.28;;;15.84;56.01
65553;BME280;52465;51.560;14.368;2023-05-02T01:28:59;100062.75;;;15.83;55.95
65553;BME280;52465;51.560;14.368;2023-05-02T01:31:39;100062.94;;;15.82;55.88
65553;BME280;52465;51.560;14.368;2023-05-02T01:34:08;100019.75;;;15.55;56.09
65553;BME280;52465;51.560;14.368;2023-05-02T01:36:40;100044.59;;;15.67;56.19
65553;BME280;52465;51.560;14.368;2023-05-02T01:39:09;100071.66;;;15.82;56.10
65553;BME280;52465;51.560;14.368;2023-05-02T01:41:37;100052.13;;;15.77;56.04
65553;BME280;52465;51.560;14.368;2023-05-02T01:44:04;100043.16;;;15.71;56.13
65553;BME280;52465;51.560;14.368;2023-05-02T01:46:33;100071.66;;;15.82;56.37
65553;BME280;52465;51.560;14.368;2023-05-02T01:49:02;100067.38;;;15.81;56.01
65553;BME280;52465;51.560;14.368;2023-05-02T01:51:34;100070.22;;;15.80;56.00
65553;BME280;52465;51.560;14.368;2023-05-02T01:54:02;100070.22;;;15.80;56.13
65553;BME280;52465;51.560;14.368;2023-05-02T01:56:33;100069.63;;;15.78;56.02
65553;BME280;52465;51.560;14.368;2023-05-02T01:59:01;100067.16;;;15.76;56.26
65553;BME280;52465;51.560;14.368;2023-05-02T02:01:28;100058.84;;;15.73;56.13
65553;BME280;52465;51.560;14.368;2023-05-02T02:03:56;100061.47;;;15.73;56.08
65553;BME280;52465;51.560;14.368;2023-05-02T02:06:23;100072.06;;;15.79;56.11
65553;BME280;52465;51.560;14.368;2023-05-02T02:08:49;100063.91;;;15.74;56.12
65553;BME280;52465;51.560;14.368;2023-05-02T02:11:17;100074.91;;;15.78;56.56
65553;BME280;52465;51.560;14.368;2023-05-02T02:13:54;100053.69;;;15.65;56.15
65553;BME280;52465;51.560;14.368;2023-05-02T02:16:29;100075.28;;;15.75;56.12
65553;BME280;52465;51.560;14.368;2023-05-02T02:18:56;100074.91;;;15.78;56.20
65553;BME280;52465;51.560;14.368;2023-05-02T02:21:24;100077.53;;;15.78;56.29
65553;BME280;52465;51.560;14.368;2023-05-02T02:23:56;100074.25;;;15.76;56.20
65553;BME280;52465;51.560;14.368;2023-05-02T02:26:25;100051.81;;;15.58;56.28
65553;BME280;52465;51.560;14.368;2023-05-02T02:28:51;100070.00;;;15.75;56.27
65553;BME280;52465;51.560;14.368;2023-05-02T02:31:17;100036.34;;;15.49;56.29
65553;BME280;52465;51.560;14.368;2023-05-02T02:33:42;100074.03;;;15.71;56.26
65553;BME280;52465;51.560;14.368;2023-05-02T02:36:20;100067.09;;;15.63;56.31
65553;BME280;52465;51.560;14.368;2023-05-02T02:39:20;100080.97;;;15.72;56.41
65553;BME280;52465;51.560;14.368;2023-05-02T02:42:11;100082.59;;;15.73;56.55
65553;BME280;52465;51.560;14.368;2023-05-02T02:47:28;100094.16;;;15.72;56.56
65553;BME280;52465;51.560;14.368;2023-05-02T02:50:18;100096.56;;;15.67;56.40
65553;BME280;52465;51.560;14.368;2023-05-02T02:52:57;100103.25;;;15.69;56.37
65553;BME280;52465;51.560;14.368;2023-05-02T02:55:44;100100.63;;;15.69;56.51
65553;BME280;52465;51.560;14.368;2023-05-02T02:58:25;100105.91;;;15.69;56.41
65553;BME280;52465;51.560;14.368;2023-05-02T03:00:53;100103.25;;;15.69;56.49
65553;BME280;52465;51.560;14.368;2023-05-02T03:03:23;100100.00;;;15.67;56.43
65553;BME280;52465;51.560;14.368;2023-05-02T03:05:55;100110.56;;;15.67;56.30
65553;BME280;52465;51.560;14.368;2023-05-02T03:08:23;100101.56;;;15.61;56.55
65553;BME280;52465;51.560;14.368;2023-05-02T03:10:48;100098.28;;;15.59;56.59
65553;BME280;52465;51.560;14.368;2023-05-02T03:13:14;100105.50;;;15.66;56.47
65553;BME280;52465;51.560;14.368;2023-05-02T03:18:44;100121.13;;;15.67;56.64
65553;BME280;52465;51.560;14.368;2023-05-02T03:23:16;100099.84;;;15.47;56.46
65553;BME280;52465;51.560;14.368;2023-05-02T03:25:42;100119.22;;;15.61;56.59
65553;BME280;52465;51.560;14.368;2023-05-02T03:28:07;100101.25;;;15.43;56.49
65553;BME280;52465;51.560;14.368;2023-05-02T03:30:33;100139.81;;;15.66;56.78
65553;BME280;52465;51.560;14.368;2023-05-02T03:32:59;100138.16;;;15.65;56.69
65553;BME280;52465;51.560;14.368;2023-05-02T03:35:25;100140.97;;;15.63;56.58
65553;BME280;52465;51.560;14.368;2023-05-02T03:37:51;100098.72;;;15.35;56.57
65553;BME280;52465;51.560;14.368;2023-05-02T03:40:16;100117.28;;;15.48;56.38
65553;BME280;52465;51.560;14.368;2023-05-02T03:42:45;100139.44;;;15.54;56.69
65553;BME280;52465;51.560;14.368;2023-05-02T03:45:11;100163.06;;;15.62;56.85
65553;BME280;52465;51.560;14.368;2023-05-02T03:47:37;100147.00;;;15.57;56.39
65553;BME280;52465;51.560;14.368;2023-05-02T03:50:02;100151.91;;;15.60;56.87
65553;BME280;52465;51.560;14.368;2023-05-02T03:52:28;100152.72;;;15.60;56.79
65553;BME280;52465;51.560;14.368;2023-05-02T03:54:53;100142.69;;;15.49;56.69
65553;BME280;52465;51.560;14.368;2023-05-02T03:57:19;100157.56;;;15.57;56.68
65553;BME280;52465;51.560;14.368;2023-05-02T03:59:45;100167.75;;;15.60;56.83
65553;BME280;52465;51.560;14.368;2023-05-02T04:02:11;100158.94;;;15.53;56.61
65553;BME280;52465;51.560;14.368;2023-05-02T04:04:37;100168.72;;;15.59;56.80
65553;BME280;52465;51.560;14.368;2023-05-02T04:07:03;100176.63;;;15.59;56.88
65553;BME280;52465;51.560;14.368;2023-05-02T04:09:29;100180.28;;;15.58;56.93
65553;BME280;52465;51.560;14.368;2023-05-02T04:11:55;100159.44;;;15.42;56.87
65553;BME280;52465;51.560;14.368;2023-05-02T04:14:20;100162.34;;;15.47;56.75
65553;BME280;52465;51.560;14.368;2023-05-02T04:16:50;100187.41;;;15.57;56.80
65553;BME280;52465;51.560;14.368;2023-05-02T04:19:16;100180.69;;;15.55;56.79
65553;BME280;52465;51.560;14.368;2023-05-02T04:21:43;100187.41;;;15.57;56.91
65553;BME280;52465;51.560;14.368;2023-05-02T04:24:08;100182.50;;;15.54;56.86
65553;BME280;52465;51.560;14.368;2023-05-02T04:26:33;100192.88;;;15.56;57.01
65553;BME280;52465;51.560;14.368;2023-05-02T04:28:59;100196.06;;;15.51;57.03
65553;BME280;52465;51.560;14.368;2023-05-02T04:31:24;100194.69;;;15.55;56.82
65553;BME280;52465;51.560;14.368;2023-05-02T04:33:51;100200.97;;;15.54;56.95
65553;BME280;52465;51.560;14.368;2023-05-02T04:36:17;100210.53;;;15.55;56.97
65553;BME280;52465;51.560;14.368;2023-05-02T04:38:45;100208.19;;;15.46;57.05
65553;BME280;52465;51.560;14.368;2023-05-02T04:41:11;100225.09;;;15.51;57.04
65553;BME280;52465;51.560;14.368;2023-05-02T04:43:37;100217.13;;;15.45;57.03
65553;BME280;52465;51.560;14.368;2023-05-02T04:46:03;100226.09;;;15.50;56.90
65553;BME280;52465;51.560;14.368;2023-05-02T04:48:31;100237.28;;;15.52;57.17
65553;BME280;52465;51.560;14.368;2023-05-02T04:51:16;100231.38;;;15.50;57.18
65553;BME280;52465;51.560;14.368;2023-05-02T04:53:41;100238.28;;;15.51;57.09
65553;BME280;52465;51.560;14.368;2023-05-02T04:56:07;100237.47;;;15.51;57.16
65553;BME280;52465;51.560;14.368;2023-05-02T04:58:32;100241.47;;;15.47;57.17
65553;BME280;52465;51.560;14.368;2023-05-02T05:00:59;100243.75;;;15.50;56.97
65553;BME280;52465;51.560;14.368;2023-05-02T05:03:28;100248.38;;;15.48;57.15
65553;BME280;52465;51.560;14.368;2023-05-02T05:05:55;100243.50;;;15.45;57.03
65553;BME280;52465;51.560;14.368;2023-05-02T05:08:20;100259.59;;;15.50;56.95
65553;BME280;52465;51.560;14.368;2023-05-02T05:10:46;100253.25;;;15.44;56.96
65553;BME280;52465;51.560;14.368;2023-05-02T05:13:11;100265.69;;;15.50;57.19
65553;BME280;52465;51.560;14.368;2023-05-02T05:15:38;100267.69;;;15.48;57.21
65553;BME280;52465;51.560;14.368;2023-05-02T05:18:04;100266.19;;;15.39;57.23
65553;BME280;52465;51.560;14.368;2023-05-02T05:20:30;100259.03;;;15.33;57.19
65553;BME280;52465;51.560;14.368;2023-05-02T05:24:26;100281.72;;;15.49;57.17
65553;BME280;52465;51.560;14.368;2023-05-02T05:26:52;100272.28;;;15.40;57.34
65553;BME280;52465;51.560;14.368;2023-05-02T05:29:17;100269.63;;;15.40;57.16
65553;BME280;52465;51.560;14.368;2023-05-02T05:31:43;100292.25;;;15.49;57.43
65553;BME280;52465;51.560;14.368;2023-05-02T05:34:08;100274.47;;;15.36;56.99
65553;BME280;52465;51.560;14.368;2023-05-02T05:36:34;100295.47;;;15.44;57.27
65553;BME280;52465;51.560;14.368;2023-05-02T05:38:59;100269.25;;;15.21;57.28
65553;BME280;52465;51.560;14.368;2023-05-02T05:43:58;100256.63;;;15.17;57.35
65553;BME280;52465;51.560;14.368;2023-05-02T05:46:25;100308.91;;;15.49;57.38
65553;BME280;52465;51.560;14.368;2023-05-02T05:48:50;100311.91;;;15.46;57.33
65553;BME280;52465;51.560;14.368;2023-05-02T05:51:15;100316.16;;;15.47;57.43
65553;BME280;52465;51.560;14.368;2023-05-02T05:53:41;100277.78;;;15.23;57.31
65553;BME280;52465;51.560;14.368;2023-05-02T05:56:10;100305.09;;;15.37;57.38
65553;BME280;52465;51.560;14.368;2023-05-02T05:58:36;100325.91;;;15.47;57.23
65553;BME280;52465;51.560;14.368;2023-05-02T06:01:02;100331.13;;;15.40;57.31
65553;BME280;52465;51.560;14.368;2023-05-02T06:03:27;100324.97;;;15.33;57.24
65553;BME280;52465;51.560;14.368;2023-05-02T06:05:53;100344.31;;;15.40;57.37
65553;BME280;52465;51.560;14.368;2023-05-02T06:08:18;100353.09;;;15.47;57.52
65553;BME280;52465;51.560;14.368;2023-05-02T06:10:46;100364.06;;;15.44;57.25
65553;BME280;52465;51.560;14.368;2023-05-02T06:13:12;100367.13;;;15.48;57.37
65553;BME280;52465;51.560;14.368;2023-05-02T06:15:37;100378.69;;;15.47;57.37
65553;BME280;52465;51.560;14.368;2023-05-02T06:18:03;100370.50;;;15.42;57.35
65553;BME280;52465;51.560;14.368;2023-05-02T06:20:28;100381.97;;;15.49;57.41
65553;BME280;52465;51.560;14.368;2023-05-02T06:22:53;100383.13;;;15.46;57.48
65553;BME280;52465;51.560;14.368;2023-05-02T06:25:21;100376.84;;;15.47;57.55
65553;BME280;52465;51.560;14.368;2023-05-02T06:27:47;100380.50;;;15.46;57.38
65553;BME280;52465;51.560;14.368;2023-05-02T06:30:31;100387.59;;;15.46;57.53
65553;BME280;52465;51.560;14.368;2023-05-02T06:32:56;100382.25;;;15.39;57.52
65553;BME280;52465;51.560;14.368;2023-05-02T06:35:22;100390.44;;;15.44;57.53
65553;BME280;52465;51.560;14.368;2023-05-02T06:37:47;100401.59;;;15.46;57.45
65553;BME280;52465;51.560;14.368;2023-05-02T06:40:12;100394.44;;;15.40;57.52
65553;BME280;52465;51.560;14.368;2023-05-02T06:42:38;100407.09;;;15.45;57.58
65553;BME280;52465;51.560;14.368;2023-05-02T06:45:04;100394.97;;;15.35;57.48
65553;BME280;52465;51.560;14.368;2023-05-02T06:47:30;100410.63;;;15.37;57.41
65553;BME280;52465;51.560;14.368;2023-05-02T06:49:55;100427.38;;;15.44;57.39
65553;BME280;52465;51.560;14.368;2023-05-02T06:52:21;100429.81;;;15.46;57.51
65553;BME280;52465;51.560;14.368;2023-05-02T06:54:46;100393.34;;;15.20;57.66
65553;BME280;52465;51.560;14.368;2023-05-02T06:57:11;100430.38;;;15.41;57.46
65553;BME280;52465;51.560;14.368;2023-05-02T06:59:37;100448.91;;;15.48;57.54
65553;BME280;52465;51.560;14.368;2023-05-02T07:02:02;100419.53;;;15.36;57.62
65553;BME280;52465;51.560;14.368;2023-05-02T07:04:28;100450.94;;;15.46;57.49
65553;BME280;52465;51.560;14.368;2023-05-02T07:06:53;100452.38;;;15.48;57.58
65553;BME280;52465;51.560;14.368;2023-05-02T07:09:18;100410.47;;;15.24;57.72
65553;BME280;52465;51.560;14.368;2023-05-02T07:11:44;100435.00;;;15.39;57.69
65553;BME280;52465;51.560;14.368;2023-05-02T07:14:09;100440.91;;;15.41;57.53
65553;BME280;52465;51.560;14.368;2023-05-02T07:16:35;100436.03;;;15.38;57.61
65553;BME280;52465;51.560;14.368;2023-05-02T07:19:00;100439.09;;;15.42;57.60
65553;BME280;52465;51.560;14.368;2023-05-02T07:21:28;100396.91;;;15.12;57.42
65553;BME280;52465;51.560;14.368;2023-05-02T07:23:53;100439.56;;;15.30;57.46
65553;BME280;52465;51.560;14.368;2023-05-02T07:26:21;100476.09;;;15.48;57.68
65553;BME280;52465;51.560;14.368;2023-05-02T07:28:47;100470.41;;;15.45;57.63
65553;BME280;52465;51.560;14.368;2023-05-02T07:31:13;100477.03;;;15.41;57.74
65553;BME280;52465;51.560;14.368;2023-05-02T07:33:38;100489.88;;;15.44;57.46
65553;BME280;52465;51.560;14.368;2023-05-02T07:36:04;100494.59;;;15.48;57.45
65553;BME280;52465;51.560;14.368;2023-05-02T07:38:29;100484.75;;;15.42;57.48
65553;BME280;52465;51.560;14.368;2023-05-02T07:40:58;100499.69;;;15.50;57.60
65553;BME280;52465;51.560;14.368;2023-05-02T07:43:24;100484.47;;;15.37;57.70
65553;BME280;52465;51.560;14.368;2023-05-02T07:45:51;100470.94;;;15.25;57.41
65553;BME280;52465;51.560;14.368;2023-05-02T07:48:16;100516.16;;;15.52;57.38
65553;BME280;52465;51.560;14.368;2023-05-02T07:50:42;100513.25;;;15.47;57.66
65553;BME280;52465;51.560;14.368;2023-05-02T07:53:08;100521.25;;;15.53;57.55
65553;BME280;52465;51.560;14.368;2023-05-02T07:55:33;100516.06;;;15.45;57.73
65553;BME280;52465;51.560;14.368;2023-05-02T07:57:59;100491.69;;;15.28;57.49
65553;BME280;52465;51.560;14.368;2023-05-02T08:00:24;100528.19;;;15.54;57.41
65553;BME280;52465;51.560;14.368;2023-05-02T08:02:50;100519.88;;;15.43;57.55
65553;BME280;52465;51.560;14.368;2023-05-02T08:05:15;100539.44;;;15.48;57.91
65553;BME280;52465;51.560;14.368;2023-05-02T08:07:59;100549.28;;;15.54;57.67
65553;BME280;52465;51.560;14.368;2023-05-02T08:10:26;100514.88;;;15.33;57.49
65553;BME280;52465;51.560;14.368;2023-05-02T08:12:51;100543.28;;;15.46;57.55
65553;BME280;52465;51.560;14.368;2023-05-02T08:15:17;100555.72;;;15.52;57.46
65553;BME280;52465;51.560;14.368;2023-05-02T08:17:42;100571.03;;;15.56;57.60
65553;BME280;52465;51.560;14.368;2023-05-02T08:20:08;100543.63;;;15.43;57.64
65553;BME280;52465;51.560;14.368;2023-05-02T08:22:33;100545.81;;;15.39;57.37
65553;BME280;52465;51.560;14.368;2023-05-02T08:24:59;100577.13;;;15.57;57.62
65553;BME280;52465;51.560;14.368;2023-05-02T08:27:24;100576.50;;;15.55;57.62
65553;BME280;52465;51.560;14.368;2023-05-02T08:29:50;100532.06;;;15.29;57.46
65553;BME280;52465;51.560;14.368;2023-05-02T08:32:16;100578.66;;;15.51;57.62
65553;BME280;52465;51.560;14.368;2023-05-02T08:34:41;100585.22;;;15.55;57.39
65553;BME280;52465;51.560;14.368;2023-05-02T08:37:10;100591.13;;;15.57;57.66
65553;BME280;52465;51.560;14.368;2023-05-02T08:39:36;100586.94;;;15.48;57.56
65553;BME280;52465;51.560;14.368;2023-05-02T08:42:06;100601.69;;;15.57;57.58
65553;BME280;52465;51.560;14.368;2023-05-02T08:44:32;100607.78;;;15.58;57.46
65553;BME280;52465;51.560;14.368;2023-05-02T08:46:59;100587.31;;;15.45;57.54
65553;BME280;52465;51.560;14.368;2023-05-02T08:49:25;100589.41;;;15.50;57.56
65553;BME280;52465;51.560;14.368;2023-05-02T08:51:52;100600.78;;;15.50;57.45
65553;BME280;52465;51.560;14.368;2023-05-02T08:54:22;100599.50;;;15.46;57.63
65553;BME280;52465;51.560;14.368;2023-05-02T08:56:50;100581.47;;;15.35;57.49
65553;BME280;52465;51.560;14.368;2023-05-02T08:59:16;100616.72;;;15.57;57.65
65553;BME280;52465;51.560;14.368;2023-05-02T09:01:48;100618.16;;;15.59;57.64
65553;BME280;52465;51.560;14.368;2023-05-02T09:04:13;100618.16;;;15.59;57.41
65553;BME280;52465;51.560;14.368;2023-05-02T09:06:39;100612.50;;;15.48;57.51
65553;BME280;52465;51.560;14.368;2023-05-02T09:09:05;100632.19;;;15.60;57.49
65553;BME280;52465;51.560;14.368;2023-05-02T09:11:31;100632.19;;;15.60;57.43
65553;BME280;52465;51.560;14.368;2023-05-02T09:13:56;100647.03;;;15.61;57.61
65553;BME280;52465;51.560;14.368;2023-05-02T09:16:28;100631.53;;;15.58;57.37
65553;BME280;52465;51.560;14.368;2023-05-02T09:18:56;100632.72;;;15.55;57.36
65553;BME280;52465;51.560;14.368;2023-05-02T09:21:40;100642.56;;;15.61;57.39
65553;BME280;52465;51.560;14.368;2023-05-02T09:24:17;100637.47;;;15.60;57.33
65553;BME280;52465;51.560;14.368;2023-05-02T09:29:20;100645.69;;;15.65;57.35
65553;BME280;52465;51.560;14.368;2023-05-02T09:31:46;100642.69;;;15.68;57.27
65553;BME280;52465;51.560;14.368;2023-05-02T09:34:15;100648.78;;;15.69;57.25
65553;BME280;52465;51.560;14.368;2023-05-02T09:36:41;100638.03;;;15.70;57.31
65553;BME280;52465;51.560;14.368;2023-05-02T09:39:11;100653.88;;;15.70;57.00
65553;BME280;52465;51.560;14.368;2023-05-02T09:41:56;100651.09;;;15.72;57.22
65553;BME280;52465;51.560;14.368;2023-05-02T09:44:24;100628.72;;;15.59;57.08
65553;BME280;52465;51.560;14.368;2023-05-02T09:46:52;100656.16;;;15.73;57.22
65553;BME280;52465;51.560;14.368;2023-05-02T09:49:18;100648.25;;;15.73;56.89
65553;BME280;52465;51.560;14.368;2023-05-02T09:51:45;100644.69;;;15.66;56.95
65553;BME280;52465;51.560;14.368;2023-05-02T09:54:12;100647.50;;;15.65;56.90
65553;BME280;52465;51.560;14.368;2023-05-02T09:56:54;100653.25;;;15.68;57.11
65553;BME280;52465;51.560;14.368;2023-05-02T09:59:21;100672.28;;;15.78;57.01
65553;BME280;52465;51.560;14.368;2023-05-02T10:01:54;100651.81;;;15.66;57.11
65553;BME280;52465;51.560;14.368;2023-05-02T10:04:25;100656.34;;;15.72;57.08
65553;BME280;52465;51.560;14.368;2023-05-02T10:06:52;100637.00;;;15.56;56.90
65553;BME280;52465;51.560;14.368;2023-05-02T10:09:19;100674.56;;;15.81;56.96
65553;BME280;52465;51.560;14.368;2023-05-02T10:11:46;100661.97;;;15.69;57.02
65553;BME280;52465;51.560;14.368;2023-05-02T10:14:13;100659.00;;;15.72;56.91
65553;BME280;52465;51.560;14.368;2023-05-02T10:16:54;100678.81;;;15.82;57.00
65553;BME280;52465;51.560;14.368;2023-05-02T10:19:23;100672.56;;;15.83;56.93
65553;BME280;52465;51.560;14.368;2023-05-02T10:21:52;100677.66;;;15.85;57.04
65553;BME280;52465;51.560;14.368;2023-05-02T10:24:18;100663.84;;;15.83;56.89
65553;BME280;52465;51.560;14.368;2023-05-02T10:26:46;100677.28;;;15.88;56.87
65553;BME280;52465;51.560;14.368;2023-05-02T10:29:12;100675.50;;;15.89;56.88
65553;BME280;52465;51.560;14.368;2023-05-02T10:31:38;100669.94;;;15.83;57.01
65553;BME280;52465;51.560;14.368;2023-05-02T10:34:07;100676.66;;;15.86;56.77
65553;BME280;52465;51.560;14.368;2023-05-02T10:36:34;100672.66;;;15.90;56.86
65553;BME280;52465;51.560;14.368;2023-05-02T10:39:01;100674.00;;;15.86;56.90
65553;BME280;52465;51.560;14.368;2023-05-02T10:41:29;100679.78;;;15.90;57.01
65553;BME280;52465;51.560;14.368;2023-05-02T10:43:55;100651.09;;;15.72;56.77
65553;BME280;52465;51.560;14.368;2023-05-02T10:46:33;100683.03;;;15.92;57.08
65553;BME280;52465;51.560;14.368;2023-05-02T10:49:10;100684.88;;;15.91;57.01
65553;BME280;52465;51.560;14.368;2023-05-02T10:51:38;100683.84;;;15.92;56.84
65553;BME280;52465;51.560;14.368;2023-05-02T10:59:29;100688.84;;;15.87;57.06
65553;BME280;52465;51.560;14.368;2023-05-02T11:01:56;100687.22;;;15.86;56.99
65553;BME280;52465;51.560;14.368;2023-05-02T11:04:22;100688.22;;;15.85;56.70
65553;BME280;52465;51.560;14.368;2023-05-02T11:11:49;100685.88;;;15.90;56.92
65553;BME280;52465;51.560;14.368;2023-05-02T11:19:27;100707.56;;;16.00;56.89
65553;BME280;52465;51.560;14.368;2023-05-02T11:24:52;100712.47;;;16.03;57.04
65553;BME280;52465;51.560;14.368;2023-05-02T11:30:04;100711.63;;;16.03;56.88
65553;BME280;52465;51.560;14.368;2023-05-02T11:35:21;100715.91;;;16.04;56.84
65553;BME280;52465;51.560;14.368;2023-05-02T11:40:19;100715.75;;;16.05;56.89
65553;BME280;52465;51.560;14.368;2023-05-02T11:42:45;100713.47;;;16.02;56.96
65553;BME280;52465;51.560;14.368;2023-05-02T11:45:11;100722.00;;;16.04;56.88
65553;BME280;52465;51.560;14.368;2023-05-02T11:47:36;100711.34;;;15.98;57.14
65553;BME280;52465;51.560;14.368;2023-05-02T11:50:05;100723.84;;;16.04;56.97
65553;BME280;52465;51.560;14.368;2023-05-02T11:52:39;100736.03;;;16.05;56.95
65553;BME280;52465;51.560;14.368;2023-05-02T11:55:07;100730.50;;;16.00;56.96
65553;BME280;52465;51.560;14.368;2023-05-02T11:57:34;100725.91;;;15.94;57.02
65553;BME280;52465;51.560;14.368;2023-05-02T11:59:59;100724.13;;;15.94;56.61
65553;BME280;52465;51.560;14.368;2023-05-02T12:02:43;100734.59;;;16.02;56.95
65553;BME280;52465;51.560;14.368;2023-05-02T12:05:13;100749.09;;;16.06;56.91
65553;BME280;52465;51.560;14.368;2023-05-02T12:07:43;100739.53;;;16.05;56.97
65553;BME280;52465;51.560;14.368;2023-05-02T12:10:14;100732.97;;;16.01;56.82
65553;BME280;52465;51.560;14.368;2023-05-02T12:12:42;100746.25;;;16.08;56.77
65553;BME280;52465;51.560;14.368;2023-05-02T12:15:09;100749.38;;;16.11;56.81
65553;BME280;52465;51.560;14.368;2023-05-02T12:17:40;100742.78;;;16.07;56.76
65553;BME280;52465;51.560;14.368;2023-05-02T12:20:08;100749.00;;;16.14;56.85
65553;BME280;52465;51.560;14.368;2023-05-02T12:22:33;100749.81;;;16.15;56.87
65553;BME280;52465;51.560;14.368;2023-05-02T12:24:59;100738.06;;;16.03;56.75
65553;BME280;52465;51.560;14.368;2023-05-02T12:27:28;100755.91;;;16.16;56.85
65553;BME280;52465;51.560;14.368;2023-05-02T12:29:53;100748.16;;;16.14;56.79
65553;BME280;52465;51.560;14.368;2023-05-02T12:34:57;100756.09;;;16.14;56.84
65553;BME280;52465;51.560;14.368;2023-05-02T12:37:23;100743.25;;;16.11;56.44
65553;BME280;52465;51.560;14.368;2023-05-02T12:39:49;100747.25;;;16.07;56.91
65553;BME280;52465;51.560;14.368;2023-05-02T12:42:16;100757.56;;;16.17;56.77
65553;BME280;52465;51.560;14.368;2023-05-02T12:44:44;100757.38;;;16.18;56.71
65553;BME280;52465;51.560;14.368;2023-05-02T12:47:14;100755.75;;;16.17;56.78
65553;BME280;52465;51.560;14.368;2023-05-02T12:49:53;100756.56;;;16.18;56.80
65553;BME280;52465;51.560;14.368;2023-05-02T12:55:19;100762.47;;;16.20;56.69
65553;BME280;52465;51.560;14.368;2023-05-02T12:57:46;100748.81;;;16.16;56.85
65553;BME280;52465;51.560;14.368;2023-05-02T13:00:12;100767.56;;;16.21;56.88
65553;BME280;52465;51.560;14.368;2023-05-02T13:02:38;100751.00;;;16.12;56.98
65553;BME280;52465;51.560;14.368;2023-05-02T13:05:22;100764.94;;;16.21;56.73
65553;BME280;52465;51.560;14.368;2023-05-02T13:07:48;100731.03;;;15.95;56.77
65553;BME280;52465;51.560;14.368;2023-05-02T13:10:13;100734.41;;;16.04;56.81
65553;BME280;52465;51.560;14.368;2023-05-02T13:12:42;100756.03;;;16.22;56.93
65553;BME280;52465;51.560;14.368;2023-05-02T13:15:08;100763.97;;;16.22;56.65
65553;BME280;52465;51.560;14.368;2023-05-02T13:17:34;100744.91;;;16.12;56.76
65553;BME280;52465;51.560;14.368;2023-05-02T13:19:59;100758.38;;;16.17;56.88
65553;BME280;52465;51.560;14.368;2023-05-02T13:22:26;100736.22;;;16.03;56.83
65553;BME280;52465;51.560;14.368;2023-05-02T13:24:52;100757.00;;;16.21;56.92
65553;BME280;52465;51.560;14.368;2023-05-02T13:27:17;100760.47;;;16.22;56.90
65553;BME280;52465;51.560;14.368;2023-05-02T13:29:43;100765.75;;;16.22;56.73
65553;BME280;52465;51.560;14.368;2023-05-02T13:32:09;100773.31;;;16.25;56.83
65553;BME280;52465;51.560;14.368;2023-05-02T13:34:35;100746.16;;;16.16;57.04
65553;BME280;52465;51.560;14.368;2023-05-02T13:37:00;100750.91;;;16.21;56.54